createdAt,value
2017-09-06T00:01:01.853Z,20.50
2017-09-06T00:03:28.159Z,20.40
2017-09-06T00:05:54.354Z,20.30
2017-09-06T00:18:07.145Z,20.20
2017-09-06T00:20:34.351Z,20.20
2017-09-06T00:23:01.270Z,20.20
2017-09-06T00:25:28.401Z,20.30
2017-09-06T00:27:54.622Z,20.30
2017-09-06T00:30:20.842Z,20.40
2017-09-06T00:32:47.034Z,20.20
2017-09-06T00:35:14.169Z,20.10
2017-09-06T00:37:41.251Z,20.00
2017-09-06T00:40:08.802Z,20.30
2017-09-06T00:42:35.751Z,20.30
2017-09-06T00:45:02.103Z,20.00
2017-09-06T00:47:29.063Z,20.20
2017-09-06T00:49:55.365Z,20.50
2017-09-06T00:52:21.577Z,20.50
2017-09-06T00:54:47.989Z,20.20
2017-09-06T00:57:14.201Z,20.30
2017-09-06T00:59:41.522Z,20.20
2017-09-06T01:02:07.701Z,20.20
2017-09-06T01:04:34.619Z,20.10
2017-09-06T01:07:03.346Z,20.00
2017-09-06T01:09:29.860Z,20.10
2017-09-06T01:11:56.062Z,19.90
2017-09-06T01:14:22.614Z,19.80
2017-09-06T01:16:49.601Z,20.00
2017-09-06T01:19:16.522Z,20.00
2017-09-06T01:21:44.832Z,20.00
2017-09-06T01:24:12.778Z,20.10
2017-09-06T01:26:39.912Z,20.10
2017-09-06T01:29:06.084Z,20.10
2017-09-06T01:31:32.255Z,20.00
2017-09-06T01:33:59.533Z,20.00
2017-09-06T01:36:26.881Z,20.10
2017-09-06T01:38:53.045Z,20.30
2017-09-06T01:41:19.510Z,19.60
2017-09-06T01:43:46.567Z,20.40
2017-09-06T01:46:13.206Z,19.90
2017-09-06T01:48:40.172Z,19.90
2017-09-06T01:51:06.383Z,19.70
2017-09-06T01:53:32.555Z,19.70
2017-09-06T01:55:58.751Z,19.00
2017-09-06T01:58:25.766Z,19.20
2017-09-06T02:00:53.049Z,19.70
2017-09-06T02:03:19.264Z,19.20
2017-09-06T02:05:45.407Z,19.70
2017-09-06T02:08:12.006Z,20.10
2017-09-06T02:10:38.591Z,19.80
2017-09-06T02:13:05.614Z,19.50
2017-09-06T02:18:04.044Z,19.60
2017-09-06T02:20:30.903Z,19.60
2017-09-06T02:22:57.088Z,20.00
2017-09-06T02:25:25.586Z,19.50
2017-09-06T02:30:20.589Z,19.10
2017-09-06T02:32:47.838Z,19.70
2017-09-06T02:35:15.466Z,19.60
2017-09-06T02:37:43.200Z,19.60
2017-09-06T02:40:10.084Z,19.60
2017-09-06T02:42:39.840Z,19.60
2017-09-06T02:45:06.467Z,19.60
2017-09-06T02:47:33.434Z,19.60
2017-09-06T02:50:00.369Z,19.50
2017-09-06T02:52:26.556Z,19.10
2017-09-06T02:54:53.380Z,19.40
2017-09-06T02:57:20.916Z,19.80
2017-09-06T02:59:48.500Z,19.80
2017-09-06T03:02:16.148Z,19.80
2017-09-06T03:04:44.443Z,19.50
2017-09-06T03:07:12.542Z,18.60
2017-09-06T03:12:07.588Z,18.60
2017-09-06T03:14:34.555Z,19.70
2017-09-06T03:17:02.339Z,19.50
2017-09-06T03:19:29.251Z,19.50
2017-09-06T03:21:56.785Z,18.90
2017-09-06T03:24:23.026Z,19.80
2017-09-06T03:26:49.211Z,19.00
2017-09-06T03:29:17.288Z,19.40
2017-09-06T03:31:44.176Z,19.60
2017-09-06T03:34:10.374Z,19.80
2017-09-06T03:36:36.553Z,19.60
2017-09-06T03:39:02.783Z,19.70
2017-09-06T03:41:28.955Z,19.30
2017-09-06T03:43:55.862Z,19.40
2017-09-06T03:46:22.935Z,19.40
2017-09-06T03:48:49.109Z,19.40
2017-09-06T03:51:16.915Z,19.40
2017-09-06T03:53:43.066Z,19.40
2017-09-06T03:56:09.246Z,19.50
2017-09-06T03:58:36.241Z,19.20
2017-09-06T04:01:02.792Z,19.30
2017-09-06T04:03:28.973Z,19.40
2017-09-06T04:05:55.458Z,19.30
2017-09-06T04:08:21.641Z,19.20
2017-09-06T04:10:47.811Z,19.20
2017-09-06T04:13:15.169Z,19.20
2017-09-06T04:15:41.814Z,19.20
2017-09-06T04:18:09.265Z,19.10
2017-09-06T04:20:35.893Z,19.10
2017-09-06T04:23:02.088Z,19.10
2017-09-06T04:25:29.433Z,19.10
2017-09-06T04:27:55.633Z,19.10
2017-09-06T04:30:21.870Z,19.10
2017-09-06T04:32:48.031Z,19.10
2017-09-06T04:35:14.215Z,19.10
2017-09-06T04:37:40.411Z,19.10
2017-09-06T04:40:06.573Z,19.00
2017-09-06T04:42:32.765Z,19.00
2017-09-06T04:44:59.681Z,19.10
2017-09-06T04:47:25.875Z,19.10
2017-09-06T04:49:52.032Z,19.10
2017-09-06T04:52:18.219Z,19.10
2017-09-06T04:54:44.423Z,19.10
2017-09-06T04:57:10.614Z,19.10
2017-09-06T04:59:36.808Z,19.10
2017-09-06T05:02:02.990Z,19.20
2017-09-06T05:04:29.202Z,19.10
2017-09-06T05:06:56.237Z,19.10
2017-09-06T05:09:22.418Z,19.10
2017-09-06T05:11:48.577Z,19.00
2017-09-06T05:14:15.727Z,19.00
2017-09-06T05:16:41.878Z,19.10
2017-09-06T05:19:09.014Z,19.00
2017-09-06T05:21:36.132Z,19.10
2017-09-06T05:24:02.906Z,19.10
2017-09-06T05:26:29.075Z,19.20
2017-09-06T05:28:55.198Z,19.20
2017-09-06T05:31:21.407Z,19.20
2017-09-06T05:33:49.280Z,19.20
2017-09-06T05:36:16.501Z,19.10
2017-09-06T05:38:42.691Z,19.10
2017-09-06T05:41:10.275Z,19.10
2017-09-06T05:43:41.070Z,19.10
2017-09-06T05:46:07.852Z,19.10
2017-09-06T05:48:34.064Z,19.10
2017-09-06T05:51:02.194Z,19.20
2017-09-06T06:03:13.424Z,19.20
2017-09-06T06:05:39.627Z,19.10
2017-09-06T06:08:05.797Z,19.10
2017-09-06T06:10:31.991Z,19.20
2017-09-06T06:12:58.800Z,19.30
2017-09-06T06:15:24.984Z,19.60
2017-09-06T06:17:51.155Z,19.50
2017-09-06T06:20:19.359Z,19.60
2017-09-06T06:22:47.422Z,19.70
2017-09-06T06:25:13.606Z,19.70
2017-09-06T06:27:39.823Z,19.90
2017-09-06T06:30:06.004Z,19.90
2017-09-06T06:32:32.160Z,20.10
2017-09-06T06:34:58.343Z,20.20
2017-09-06T06:37:24.555Z,20.30
2017-09-06T06:39:50.818Z,20.20
2017-09-06T06:42:16.998Z,20.20
2017-09-06T06:44:43.178Z,20.10
2017-09-06T06:47:09.373Z,20.10
2017-09-06T06:49:35.579Z,20.00
2017-09-06T06:52:02.707Z,20.00
2017-09-06T06:54:28.873Z,20.00
2017-09-06T06:56:55.407Z,20.30
2017-09-06T06:59:21.622Z,20.30
2017-09-06T07:01:47.830Z,20.30
2017-09-06T07:04:14.863Z,20.40
2017-09-06T07:06:41.034Z,20.50
2017-09-06T07:09:07.957Z,20.50
2017-09-06T07:11:35.019Z,20.40
2017-09-06T07:14:01.252Z,20.30
2017-09-06T07:16:28.941Z,20.30
2017-09-06T07:18:55.214Z,20.20
2017-09-06T07:21:22.398Z,20.00
2017-09-06T07:23:48.559Z,20.00
2017-09-06T07:26:14.763Z,19.90
2017-09-06T07:28:41.542Z,20.00
2017-09-06T07:31:07.763Z,20.00
2017-09-06T07:33:34.002Z,20.20
2017-09-06T07:36:01.111Z,20.20
2017-09-06T07:38:27.264Z,20.30
2017-09-06T07:40:53.441Z,20.40
2017-09-06T07:43:20.518Z,20.60
2017-09-06T07:45:47.705Z,21.40
2017-09-06T07:48:13.909Z,21.60
2017-09-06T07:50:40.110Z,21.80
2017-09-06T07:53:06.344Z,23.40
2017-09-06T07:55:36.042Z,24.00
2017-09-06T07:58:02.350Z,24.20
2017-09-06T08:00:30.288Z,24.30
2017-09-06T08:02:56.474Z,24.80
2017-09-06T08:05:22.970Z,24.30
2017-09-06T08:07:55.182Z,24.20
2017-09-06T08:10:21.403Z,23.90
2017-09-06T08:12:47.552Z,23.90
2017-09-06T08:15:13.782Z,23.40
2017-09-06T08:17:42.719Z,23.30
2017-09-06T08:20:08.896Z,23.40
2017-09-06T08:22:35.309Z,23.00
2017-09-06T08:25:05.058Z,22.80
2017-09-06T08:27:33.168Z,22.70
2017-09-06T08:29:59.472Z,22.60
2017-09-06T08:32:25.694Z,22.50
2017-09-06T08:34:51.890Z,22.50
2017-09-06T08:37:18.103Z,22.50
2017-09-06T08:49:29.356Z,22.50
2017-09-06T08:51:55.587Z,22.50
2017-09-06T08:54:21.779Z,22.60
2017-09-06T08:56:48.151Z,23.00
2017-09-06T08:59:16.082Z,23.00
2017-09-06T09:01:42.307Z,23.30
2017-09-06T09:04:09.446Z,23.10
2017-09-06T09:06:36.481Z,23.60
2017-09-06T09:09:02.688Z,23.80
2017-09-06T09:11:28.911Z,24.00
2017-09-06T09:13:55.102Z,24.40
2017-09-06T09:16:21.289Z,24.60
2017-09-06T09:18:49.732Z,24.80
2017-09-06T09:21:16.821Z,25.20
2017-09-06T09:23:43.047Z,26.00
2017-09-06T09:26:10.920Z,26.40
2017-09-06T09:28:37.058Z,26.50
2017-09-06T09:31:03.243Z,26.90
2017-09-06T09:33:29.414Z,27.00
2017-09-06T09:35:55.582Z,25.90
2017-09-06T09:38:21.738Z,25.30
2017-09-06T09:40:48.826Z,24.80
2017-09-06T09:43:15.031Z,24.50
2017-09-06T09:45:41.183Z,24.30
2017-09-06T09:48:07.373Z,23.90
2017-09-06T09:50:33.502Z,23.80
2017-09-06T09:52:59.702Z,23.60
2017-09-06T09:55:27.031Z,23.40
2017-09-06T09:57:54.874Z,23.10
2017-09-06T10:00:21.083Z,22.70
2017-09-06T10:02:47.655Z,21.50
2017-09-06T10:05:14.455Z,21.20
2017-09-06T10:07:40.663Z,21.10
2017-09-06T10:10:06.870Z,21.10
2017-09-06T10:12:33.924Z,21.20
2017-09-06T10:15:00.122Z,21.30
2017-09-06T10:27:11.484Z,21.30
2017-09-06T10:29:37.626Z,21.10
2017-09-06T10:32:03.814Z,21.10
2017-09-06T10:34:30.948Z,21.20
2017-09-06T10:36:57.135Z,21.20
2017-09-06T10:39:23.299Z,21.50
2017-09-06T10:41:53.684Z,21.70
2017-09-06T10:44:22.472Z,23.00
2017-09-06T10:46:48.615Z,25.50
2017-09-06T10:49:14.794Z,25.40
2017-09-06T10:51:42.366Z,26.00
2017-09-06T11:03:53.972Z,27.10
2017-09-06T11:06:20.110Z,27.10
2017-09-06T11:08:48.113Z,28.50
2017-09-06T11:11:14.329Z,28.70
2017-09-06T11:13:40.552Z,29.60
2017-09-06T11:16:08.203Z,30.40
2017-09-06T11:18:34.367Z,30.10
2017-09-06T11:21:00.514Z,30.10
2017-09-06T11:23:28.134Z,30.30
2017-09-06T11:25:55.086Z,30.80
2017-09-06T11:28:23.213Z,31.40
2017-09-06T11:30:51.827Z,30.30
2017-09-06T11:33:18.043Z,29.70
2017-09-06T11:38:12.210Z,27.90
2017-09-06T11:40:40.166Z,26.70
2017-09-06T11:43:06.388Z,27.50
2017-09-06T11:45:33.470Z,27.10
2017-09-06T11:47:59.964Z,27.60
2017-09-06T11:50:26.955Z,27.10
2017-09-06T11:52:53.497Z,27.50
2017-09-06T11:55:19.692Z,28.50
2017-09-06T11:57:46.226Z,29.00
2017-09-06T12:00:12.388Z,29.20
2017-09-06T12:02:38.855Z,29.70
2017-09-06T12:05:05.754Z,29.40
2017-09-06T12:07:32.054Z,30.20
2017-09-06T12:09:59.229Z,29.80
2017-09-06T12:12:25.834Z,30.30
2017-09-06T12:14:52.017Z,30.20
2017-09-06T12:17:18.212Z,29.30
2017-09-06T12:19:45.442Z,28.80
2017-09-06T12:22:12.614Z,27.40
2017-09-06T12:24:41.650Z,26.60
2017-09-06T12:27:07.858Z,25.60
2017-09-06T12:29:34.025Z,25.80
2017-09-06T12:32:00.203Z,25.70
2017-09-06T12:34:27.359Z,26.50
2017-09-06T12:36:54.927Z,27.00
2017-09-06T12:39:21.126Z,26.30
2017-09-06T12:41:48.398Z,25.10
2017-09-06T12:44:14.589Z,24.60
2017-09-06T12:46:42.401Z,24.70
2017-09-06T12:49:08.618Z,24.40
2017-09-06T12:51:35.648Z,24.70
2017-09-06T12:54:02.253Z,24.10
2017-09-06T12:56:28.547Z,24.10
2017-09-06T12:58:54.719Z,24.00
2017-09-06T13:01:22.649Z,23.90
2017-09-06T13:03:48.858Z,24.50
2017-09-06T13:06:15.037Z,24.40
2017-09-06T13:08:41.324Z,23.80
2017-09-06T13:11:08.222Z,23.40
2017-09-06T13:13:34.426Z,23.60
2017-09-06T13:16:01.221Z,22.80
2017-09-06T13:18:27.426Z,22.70
2017-09-06T13:20:53.611Z,22.10
2017-09-06T13:23:19.818Z,22.30
2017-09-06T13:25:47.327Z,22.30
2017-09-06T13:28:13.494Z,22.60
2017-09-06T13:30:40.510Z,21.90
2017-09-06T13:33:06.675Z,22.20
2017-09-06T13:35:33.859Z,22.50
2017-09-06T13:38:00.023Z,22.50
2017-09-06T13:40:26.974Z,22.80
2017-09-06T13:42:53.134Z,24.00
2017-09-06T13:45:19.302Z,24.60
2017-09-06T13:47:45.498Z,24.50
2017-09-06T13:50:14.474Z,23.80
2017-09-06T13:52:40.690Z,23.20
2017-09-06T13:55:06.926Z,22.70
2017-09-06T13:57:33.116Z,22.40
2017-09-06T13:59:59.275Z,22.20
2017-09-06T14:02:25.475Z,22.30
2017-09-06T14:04:51.657Z,22.20
2017-09-06T14:07:18.599Z,22.40
2017-09-06T14:09:46.882Z,22.40
2017-09-06T14:12:13.159Z,22.70
2017-09-06T14:14:39.408Z,22.40
2017-09-06T14:17:05.642Z,22.20
2017-09-06T14:19:33.803Z,22.20
2017-09-06T14:22:00.017Z,22.30
2017-09-06T14:24:26.984Z,22.30
2017-09-06T14:26:53.187Z,22.30
2017-09-06T14:29:19.402Z,22.40
2017-09-06T14:31:48.325Z,22.40
2017-09-06T14:34:15.201Z,22.40
2017-09-06T14:36:41.426Z,22.40
2017-09-06T14:39:07.595Z,22.20
2017-09-06T14:41:35.819Z,22.10
2017-09-06T14:44:02.074Z,22.10
2017-09-06T14:46:28.305Z,22.00
2017-09-06T14:48:55.491Z,22.10
2017-09-06T14:51:21.711Z,22.00
2017-09-06T14:53:47.922Z,21.90
2017-09-06T14:56:14.111Z,21.90
2017-09-06T14:58:40.532Z,22.20
2017-09-06T15:01:06.727Z,22.20
2017-09-06T15:06:11.434Z,22.20
2017-09-06T15:08:38.432Z,22.20
2017-09-06T15:11:04.607Z,22.10
2017-09-06T15:13:31.603Z,22.10
2017-09-06T15:15:59.716Z,22.00
2017-09-06T15:18:25.908Z,22.10
2017-09-06T15:20:52.940Z,22.00
2017-09-06T15:23:19.485Z,21.90
2017-09-06T15:25:46.281Z,21.70
2017-09-06T15:28:13.408Z,21.60
2017-09-06T15:30:40.027Z,21.50
2017-09-06T15:33:06.918Z,21.50
2017-09-06T15:45:18.129Z,21.00
2017-09-06T15:47:44.682Z,21.10
2017-09-06T15:50:10.902Z,21.10
2017-09-06T15:52:38.015Z,21.20
2017-09-06T15:55:04.979Z,21.20
2017-09-06T15:57:31.174Z,21.20
2017-09-06T15:59:58.295Z,21.20
2017-09-06T16:12:09.538Z,21.20
2017-09-06T16:14:35.837Z,21.20
2017-09-06T16:17:02.080Z,21.00
2017-09-06T16:19:28.740Z,21.00
2017-09-06T16:21:55.719Z,20.80
2017-09-06T16:24:23.882Z,20.80
2017-09-06T16:26:54.929Z,20.80
2017-09-06T16:29:21.114Z,20.80
2017-09-06T16:31:47.831Z,20.70
2017-09-06T16:34:14.347Z,20.60
2017-09-06T16:36:41.370Z,20.50
2017-09-06T16:39:09.143Z,20.50
2017-09-06T16:41:35.359Z,20.50
2017-09-06T16:44:02.742Z,20.40
2017-09-06T16:46:29.172Z,20.30
2017-09-06T16:48:55.495Z,20.30
2017-09-06T16:51:23.227Z,20.20
2017-09-06T16:53:51.079Z,20.00
2017-09-06T16:56:17.349Z,20.00
2017-09-06T16:58:44.822Z,19.90
2017-09-06T17:01:12.116Z,19.90
2017-09-06T17:03:38.318Z,19.90
2017-09-06T17:06:04.490Z,19.80
2017-09-06T17:08:30.702Z,19.70
2017-09-06T17:10:56.911Z,19.70
2017-09-06T17:13:23.126Z,19.70
2017-09-06T17:15:49.516Z,19.60
2017-09-06T17:18:17.693Z,19.60
2017-09-06T17:20:43.855Z,19.60
2017-09-06T17:23:12.037Z,19.40
2017-09-06T17:35:23.234Z,19.50
2017-09-06T17:37:49.487Z,19.40
2017-09-06T17:40:16.863Z,19.40
2017-09-06T17:42:46.054Z,19.40
2017-09-06T17:45:13.426Z,19.30
2017-09-06T17:47:42.103Z,19.30
2017-09-06T17:50:09.010Z,19.30
2017-09-06T17:52:35.217Z,19.30
2017-09-06T17:55:04.803Z,19.30
2017-09-06T17:57:31.891Z,19.20
2017-09-06T17:59:58.102Z,19.20
2017-09-06T18:02:24.619Z,19.20
2017-09-06T18:04:52.070Z,19.20
2017-09-06T18:07:18.636Z,19.00
2017-09-06T18:09:44.979Z,19.20
2017-09-06T18:12:11.175Z,19.30
2017-09-06T18:14:38.217Z,19.30
2017-09-06T18:17:04.623Z,19.30
2017-09-06T18:19:31.879Z,19.30
2017-09-06T18:21:58.801Z,19.20
2017-09-06T18:24:25.934Z,19.20
2017-09-06T18:26:52.249Z,19.20
2017-09-06T18:29:18.441Z,19.20
2017-09-06T18:31:46.639Z,19.20
2017-09-06T18:34:13.196Z,19.20
2017-09-06T18:36:39.471Z,19.10
2017-09-06T18:39:05.685Z,19.10
2017-09-06T18:41:31.867Z,19.20
2017-09-06T18:44:06.064Z,19.20
2017-09-06T18:46:32.395Z,19.20
2017-09-06T18:48:59.428Z,19.10
2017-09-06T18:51:26.050Z,19.10
2017-09-06T18:53:56.524Z,19.10
2017-09-06T18:56:22.780Z,19.10
2017-09-06T18:58:48.975Z,19.10
2017-09-06T19:01:15.444Z,19.00
2017-09-06T19:03:41.685Z,18.90
2017-09-06T19:06:09.633Z,18.50
2017-09-06T19:08:37.968Z,18.80
2017-09-06T19:11:04.736Z,18.70
2017-09-06T19:13:30.954Z,18.70
2017-09-06T19:15:57.534Z,18.60
2017-09-06T19:18:23.751Z,18.60
2017-09-06T19:20:50.010Z,18.50
2017-09-06T19:23:16.217Z,18.50
2017-09-06T19:25:42.886Z,18.40
2017-09-06T19:28:10.912Z,18.40
2017-09-06T19:30:37.193Z,18.40
2017-09-06T19:33:03.659Z,18.20
2017-09-06T19:35:31.240Z,18.20
2017-09-06T19:37:57.577Z,18.30
2017-09-06T19:40:24.641Z,18.20
2017-09-06T19:42:51.088Z,18.00
2017-09-06T19:45:17.374Z,18.00
2017-09-06T19:47:43.575Z,17.90
2017-09-06T19:50:09.784Z,17.90
2017-09-06T19:52:35.976Z,17.90
2017-09-06T19:55:02.213Z,17.90
2017-09-06T19:57:30.853Z,17.90
2017-09-06T19:59:57.083Z,17.90
2017-09-06T20:02:24.221Z,17.90
2017-09-06T20:04:50.433Z,17.90
2017-09-06T20:07:16.676Z,17.90
2017-09-06T20:09:43.051Z,18.00
2017-09-06T20:12:09.252Z,17.90
2017-09-06T20:14:35.482Z,17.90
2017-09-06T20:17:03.057Z,18.00
2017-09-06T20:19:29.359Z,17.90
2017-09-06T20:21:55.539Z,18.00
2017-09-06T20:24:22.267Z,18.00
2017-09-06T20:26:50.401Z,18.00
2017-09-06T20:29:16.953Z,18.00
2017-09-06T20:31:44.279Z,18.00
2017-09-06T20:34:10.950Z,18.00
2017-09-06T20:36:37.200Z,17.90
2017-09-06T20:39:03.534Z,17.90
2017-09-06T20:41:29.722Z,17.90
2017-09-06T20:43:56.891Z,17.90
2017-09-06T20:46:24.085Z,17.90
2017-09-06T20:48:50.962Z,17.90
2017-09-06T20:51:21.305Z,17.90
2017-09-06T20:53:48.764Z,17.90
2017-09-06T20:56:17.984Z,17.90
2017-09-06T20:58:44.124Z,17.90
2017-09-06T21:01:10.710Z,17.90
2017-09-06T21:03:37.825Z,17.80
2017-09-06T21:06:04.014Z,17.80
2017-09-06T21:08:30.292Z,17.80
2017-09-06T21:20:41.490Z,17.70
2017-09-06T21:23:07.712Z,17.70
2017-09-06T21:25:33.912Z,17.70
2017-09-06T21:28:00.075Z,17.80
2017-09-06T21:30:27.226Z,17.70
2017-09-06T21:32:56.585Z,17.70
2017-09-06T21:35:22.823Z,17.60
2017-09-06T21:47:34.076Z,17.40
2017-09-06T21:50:03.171Z,17.20
2017-09-06T21:52:29.342Z,17.50
2017-09-06T21:54:57.026Z,17.40
2017-09-06T21:57:23.207Z,17.30
2017-09-06T21:59:52.488Z,17.30
2017-09-06T22:02:20.829Z,17.20
2017-09-06T22:04:47.706Z,17.20
2017-09-06T22:07:14.154Z,17.50
2017-09-06T22:09:41.733Z,17.30
2017-09-06T22:12:07.926Z,17.10
2017-09-06T22:14:34.112Z,17.00
2017-09-06T22:17:03.083Z,17.20
2017-09-06T22:19:30.881Z,17.00
2017-09-06T22:21:57.051Z,17.00
2017-09-06T22:24:23.253Z,17.10
2017-09-06T22:26:49.471Z,17.10
2017-09-06T22:29:15.646Z,17.00
2017-09-06T22:32:19.442Z,17.10
2017-09-06T22:34:46.647Z,17.10
2017-09-06T22:37:13.072Z,17.10
2017-09-06T22:39:41.578Z,17.10
2017-09-06T22:42:08.057Z,17.00
2017-09-06T22:44:35.008Z,16.90
2017-09-06T22:47:02.362Z,16.80
2017-09-06T22:49:28.832Z,16.80
2017-09-06T22:51:55.418Z,16.90
2017-09-06T22:54:21.604Z,16.80
2017-09-06T22:56:48.179Z,16.80
2017-09-06T22:59:14.374Z,16.80
2017-09-06T23:01:42.806Z,16.80
2017-09-06T23:04:08.970Z,17.20
2017-09-06T23:06:36.569Z,16.70
2017-09-06T23:09:02.763Z,16.60
2017-09-06T23:11:28.944Z,16.80
2017-09-06T23:13:55.123Z,16.50
2017-09-06T23:16:24.747Z,16.50
2017-09-06T23:18:51.274Z,16.60
2017-09-06T23:21:17.472Z,16.50
2017-09-06T23:23:44.410Z,16.50
2017-09-06T23:26:11.298Z,16.40
2017-09-06T23:28:37.523Z,16.40
2017-09-06T23:31:03.783Z,16.20
2017-09-06T23:33:30.003Z,15.90
2017-09-06T23:35:56.176Z,15.90
2017-09-06T23:38:23.102Z,16.20
2017-09-06T23:40:49.783Z,16.10
2017-09-06T23:43:15.990Z,16.10
2017-09-06T23:45:43.580Z,16.00
2017-09-06T23:48:09.775Z,16.00
2017-09-06T23:50:36.756Z,16.10
2017-09-06T23:53:02.952Z,16.10
2017-09-06T23:55:30.859Z,16.10
2017-09-06T23:57:59.728Z,16.10
